Time;durP1;ratioP1;P1;durP2;ratioP2;P2;SDS_P1;SDS_P2;PMS_P1;PMS_P2;Temp;Humidity;BMP_temperature;BMP_pressure;BME280_temperature;BME280_humidity;BME280_pressure;Samples;Min_cycle;Max_cycle;Signal;HPM_P1;HPM_P2
2021/03/21 00:00:15;;;;;;;3.03;2.73;;;3.80;99.90;;;;;;5005568;28;20654;-76
2021/03/21 00:02:41;;;;;;;3.47;2.50;;;3.80;99.90;;;;;;5005753;28;20233;-76
2021/03/21 00:05:08;;;;;;;2.70;2.47;;;3.80;99.90;;;;;;5005885;28;20214;-76
2021/03/21 00:07:34;;;;;;;2.87;2.43;;;3.80;99.90;;;;;;5005949;28;20277;-76
2021/03/21 00:10:03;;;;;;;2.83;2.63;;;3.90;99.90;;;;;;5005917;28;20210;-74
2021/03/21 00:12:30;;;;;;;2.90;2.70;;;3.90;99.90;;;;;;5005566;28;20212;-74
2021/03/21 00:14:56;;;;;;;2.90;2.70;;;4.00;99.90;;;;;;5005349;28;20237;-76
2021/03/21 00:17:22;;;;;;;2.67;2.47;;;4.10;99.90;;;;;;5005953;28;20209;-76
2021/03/21 00:19:49;;;;;;;3.40;3.10;;;4.10;99.90;;;;;;4997846;28;20248;-75
2021/03/21 00:22:15;;;;;;;2.77;2.57;;;4.00;99.90;;;;;;5002963;28;20672;-77
2021/03/21 00:24:41;;;;;;;3.07;2.80;;;4.00;99.90;;;;;;5009238;28;20210;-77
2021/03/21 00:27:08;;;;;;;3.93;3.00;;;4.00;99.90;;;;;;5008747;28;20238;-77
2021/03/21 00:29:36;;;;;;;3.40;3.00;;;4.00;99.90;;;;;;5008883;28;20241;-77
2021/03/21 00:32:03;;;;;;;2.93;2.73;;;4.00;99.90;;;;;;5008991;28;20703;-75
2021/03/21 00:34:29;;;;;;;3.33;3.03;;;4.00;99.90;;;;;;5009305;28;20265;-76
2021/03/21 00:36:55;;;;;;;4.07;3.20;;;3.90;99.90;;;;;;5009006;28;20407;-76
2021/03/21 00:39:21;;;;;;;4.17;3.77;;;3.90;99.90;;;;;;5008974;28;20706;-76
2021/03/21 00:41:47;;;;;;;3.90;3.60;;;3.80;99.90;;;;;;5009109;28;20209;-77
2021/03/21 00:44:14;;;;;;;3.63;3.33;;;3.80;99.90;;;;;;5009143;28;20210;-77
2021/03/21 00:46:40;;;;;;;3.23;3.03;;;3.80;99.90;;;;;;5009099;28;20244;-77
2021/03/21 00:49:07;;;;;;;5.13;3.40;;;3.80;99.90;;;;;;5009093;28;20220;-76
2021/03/21 00:51:33;;;;;;;4.43;3.80;;;3.80;99.90;;;;;;5008926;28;20205;-77
2021/03/21 00:53:59;;;;;;;3.40;3.20;;;3.80;99.90;;;;;;5008845;28;20287;-77
2021/03/21 00:56:30;;;;;;;3.60;3.30;;;3.80;99.90;;;;;;5008952;28;20463;-77
2021/03/21 00:58:58;;;;;;;3.50;3.30;;;3.80;99.90;;;;;;5008722;28;20197;-77
2021/03/21 01:01:25;;;;;;;5.27;3.77;;;3.70;99.90;;;;;;5008785;28;20220;-76
2021/03/21 01:03:52;;;;;;;4.17;3.87;;;3.70;99.90;;;;;;5008847;28;20217;-76
2021/03/21 01:06:18;;;;;;;6.40;4.37;;;3.70;99.90;;;;;;5001768;28;20221;-77
2021/03/21 01:08:44;;;;;;;4.33;4.03;;;3.70;99.90;;;;;;4996305;28;20197;-77
2021/03/21 01:11:17;;;;;;;5.70;4.00;;;3.70;99.90;;;;;;5002867;28;20244;-77
2021/03/21 01:13:44;;;;;;;4.80;4.40;;;3.60;99.90;;;;;;4999325;28;20198;-78
2021/03/21 01:16:14;;;;;;;7.67;4.47;;;3.60;99.90;;;;;;5001013;28;20295;-77
2021/03/21 01:18:41;;;;;;;5.37;4.87;;;3.60;99.90;;;;;;5007929;28;20222;-75
2021/03/21 01:21:11;;;;;;;5.03;4.60;;;3.60;99.90;;;;;;5008613;28;20225;-75
2021/03/21 01:23:38;;;;;;;6.73;5.03;;;3.60;99.90;;;;;;5008630;28;20232;-77
2021/03/21 01:26:04;;;;;;;5.27;4.77;;;3.50;99.90;;;;;;5008461;28;20287;-76
2021/03/21 01:28:33;;;;;;;5.40;5.00;;;3.50;99.90;;;;;;5008723;28;20212;-76
2021/03/21 01:31:01;;;;;;;5.40;5.00;;;3.50;99.90;;;;;;5008677;28;20205;-76
2021/03/21 01:33:29;;;;;;;5.80;5.30;;;3.60;99.90;;;;;;5008457;28;20287;-76
2021/03/21 01:35:57;;;;;;;5.73;5.23;;;3.50;99.90;;;;;;5008391;28;20517;-76
2021/03/21 01:38:24;;;;;;;5.47;5.00;;;3.50;99.90;;;;;;5009068;28;20206;-77
2021/03/21 01:40:54;;;;;;;5.70;5.17;;;3.50;99.90;;;;;;5011821;28;20213;-76
2021/03/21 01:43:26;;;;;;;6.17;5.63;;;3.50;99.90;;;;;;5012276;28;20699;-76
2021/03/21 01:45:53;;;;;;;6.07;5.57;;;3.40;99.90;;;;;;5012263;28;20225;-77
2021/03/21 01:48:22;;;;;;;6.93;6.23;;;3.40;99.90;;;;;;5012440;28;20206;-77
2021/03/21 01:50:54;;;;;;;6.53;5.93;;;3.40;99.90;;;;;;5011711;28;20210;-77
2021/03/21 01:53:24;;;;;;;7.47;6.30;;;3.40;99.90;;;;;;5011731;28;20263;-76
2021/03/21 01:55:51;;;;;;;6.70;6.10;;;3.40;99.90;;;;;;5012141;28;20225;-76
2021/03/21 01:58:20;;;;;;;8.27;6.87;;;3.40;99.90;;;;;;5012255;28;20213;-76
2021/03/21 02:00:46;;;;;;;8.73;7.13;;;3.30;99.90;;;;;;5012268;28;20220;-77
2021/03/21 02:03:13;;;;;;;8.53;7.37;;;3.20;99.90;;;;;;5012194;28;20206;-77
2021/03/21 02:05:40;;;;;;;11.80;7.73;;;3.20;99.90;;;;;;5012043;28;20236;-77
2021/03/21 02:08:32;;;;;;;9.20;8.23;;;3.10;99.90;;;;;;5012034;28;20209;-76
2021/03/21 02:11:06;;;;;;;9.03;7.87;;;3.10;99.90;;;;;;5012269;28;20348;-76
2021/03/21 02:13:42;;;;;;;9.37;8.33;;;3.10;99.90;;;;;;5011766;28;20205;-77
2021/03/21 02:16:13;;;;;;;9.57;8.57;;;3.10;99.90;;;;;;5011998;28;20216;-78
2021/03/21 02:18:47;;;;;;;11.20;8.73;;;3.10;99.90;;;;;;5011502;28;20651;-78
2021/03/21 02:21:24;;;;;;;11.47;8.83;;;3.00;99.90;;;;;;5009587;28;20205;-78
2021/03/21 02:24:28;;;;;;;11.90;9.20;;;3.00;99.90;;;;;;5010603;28;20255;-78
2021/03/21 02:27:25;;;;;;;12.93;9.13;;;3.10;99.90;;;;;;5011507;28;20197;-78
2021/03/21 02:29:56;;;;;;;13.27;9.77;;;3.10;99.90;;;;;;5011914;28;20202;-79
2021/03/21 02:32:27;;;;;;;10.90;9.47;;;3.10;99.90;;;;;;5011552;28;20193;-78
2021/03/21 02:35:08;;;;;;;10.70;9.33;;;3.10;99.90;;;;;;5011197;28;20225;-78
2021/03/21 02:37:47;;;;;;;12.60;10.20;;;3.10;99.90;;;;;;5011569;28;20225;-79
2021/03/21 02:40:22;;;;;;;16.50;10.73;;;3.10;99.90;;;;;;5011388;28;20599;-78
2021/03/21 02:42:54;;;;;;;12.90;10.07;;;3.20;99.90;;;;;;5011373;28;20235;-78
2021/03/21 02:45:25;;;;;;;11.93;10.07;;;3.20;99.90;;;;;;5011302;28;20203;-79
2021/03/21 02:47:52;;;;;;;11.47;9.80;;;3.20;99.90;;;;;;5011474;28;20273;-79
2021/03/21 02:50:24;;;;;;;11.63;10.23;;;3.20;99.90;;;;;;5011159;28;20201;-78
2021/03/21 02:52:55;;;;;;;11.30;10.03;;;3.20;99.90;;;;;;5010484;28;20644;-78
2021/03/21 02:55:27;;;;;;;13.73;10.53;;;3.20;99.90;;;;;;5011201;28;20292;-78
2021/03/21 02:57:57;;;;;;;14.40;10.97;;;3.20;99.90;;;;;;5011040;28;20201;-78
2021/03/21 03:00:30;;;;;;;12.73;10.03;;;3.20;99.90;;;;;;5011235;28;20294;-78
2021/03/21 03:03:00;;;;;;;12.23;10.00;;;3.20;99.90;;;;;;5011217;28;20193;-79
2021/03/21 03:05:28;;;;;;;12.37;9.77;;;3.20;99.90;;;;;;5011053;28;20229;-77
2021/03/21 03:07:59;;;;;;;12.90;10.57;;;3.30;99.90;;;;;;5010922;28;20205;-77
2021/03/21 03:10:31;;;;;;;11.33;10.13;;;3.30;99.90;;;;;;5011111;28;20232;-78
2021/03/21 03:13:05;;;;;;;12.80;10.80;;;3.30;99.90;;;;;;5010934;28;20194;-78
2021/03/21 03:15:32;;;;;;;11.57;10.33;;;3.30;99.90;;;;;;5010655;28;20696;-78
2021/03/21 03:18:06;;;;;;;14.37;10.97;;;3.40;99.90;;;;;;5010866;28;20210;-77
2021/03/21 03:20:39;;;;;;;14.30;10.63;;;3.30;99.90;;;;;;5010448;28;20232;-78
2021/03/21 03:23:14;;;;;;;11.60;10.23;;;3.40;99.90;;;;;;5010228;28;20652;-78
2021/03/21 03:25:53;;;;;;;11.87;10.07;;;3.40;99.90;;;;;;5010406;28;20190;-77
2021/03/21 03:28:29;;;;;;;12.03;10.53;;;3.40;99.90;;;;;;5010699;28;20236;-77
2021/03/21 03:31:01;;;;;;;13.27;10.83;;;3.40;99.90;;;;;;5010508;28;20235;-77
2021/03/21 03:33:29;;;;;;;13.33;9.87;;;3.40;99.90;;;;;;5010640;28;20204;-76
2021/03/21 03:35:56;;;;;;;15.13;10.70;;;3.40;99.90;;;;;;5010304;28;20256;-77
2021/03/21 03:38:23;;;;;;;13.20;10.30;;;3.40;99.90;;;;;;5010652;28;20205;-77
2021/03/21 03:40:54;;;;;;;12.37;9.73;;;3.50;99.90;;;;;;5010318;28;20251;-76
2021/03/21 03:43:32;;;;;;;10.40;9.30;;;3.50;99.90;;;;;;5010393;28;20225;-75
2021/03/21 03:46:07;;;;;;;12.30;9.53;;;3.50;99.90;;;;;;5010324;28;20201;-75
2021/03/21 03:48:49;;;;;;;11.63;8.93;;;3.60;99.90;;;;;;5010284;28;20205;-76
2021/03/21 03:51:27;;;;;;;10.03;9.03;;;3.60;99.90;;;;;;5010042;28;20189;-75
2021/03/21 03:54:11;;;;;;;11.20;8.70;;;3.60;99.90;;;;;;5009893;28;20194;-76
2021/03/21 03:56:44;;;;;;;12.77;8.23;;;3.60;99.90;;;;;;5009865;28;21068;-77
2021/03/21 03:59:25;;;;;;;8.53;7.63;;;3.70;99.90;;;;;;5009834;28;20763;-78
2021/03/21 04:01:58;;;;;;;10.90;8.13;;;3.70;99.90;;;;;;5009675;28;20205;-77
2021/03/21 04:04:34;;;;;;;9.07;7.40;;;3.70;99.90;;;;;;5009760;28;20262;-77
2021/03/21 04:07:09;;;;;;;8.37;7.57;;;3.70;99.90;;;;;;5009876;28;20314;-77
2021/03/21 04:09:41;;;;;;;8.10;7.23;;;3.80;99.90;;;;;;5009985;28;20201;-77
2021/03/21 04:12:11;;;;;;;7.50;6.80;;;3.80;99.90;;;;;;5009540;28;20659;-77
2021/03/21 04:14:43;;;;;;;6.83;6.23;;;3.80;99.90;;;;;;5009702;28;20226;-77
2021/03/21 04:17:15;;;;;;;6.87;6.17;;;3.90;99.90;;;;;;5009792;28;20233;-78
2021/03/21 04:19:49;;;;;;;6.90;6.30;;;3.90;99.90;;;;;;5009464;28;20237;-78
2021/03/21 04:22:20;;;;;;;6.40;5.73;;;3.90;99.90;;;;;;5009791;28;20190;-78
2021/03/21 04:24:50;;;;;;;6.33;5.73;;;3.90;99.90;;;;;;5009341;28;20623;-79
2021/03/21 04:27:19;;;;;;;6.23;5.70;;;4.00;99.90;;;;;;5009719;28;20202;-78
2021/03/21 04:29:51;;;;;;;6.00;5.50;;;4.00;99.90;;;;;;5009344;28;20633;-78
2021/03/21 04:32:23;;;;;;;5.80;5.30;;;4.00;99.90;;;;;;5009385;28;20205;-79
2021/03/21 04:34:52;;;;;;;5.83;5.27;;;4.00;99.90;;;;;;5009591;28;20505;-79
2021/03/21 04:37:20;;;;;;;5.97;5.20;;;4.00;99.90;;;;;;5009108;28;20213;-75
2021/03/21 04:39:47;;;;;;;6.03;5.53;;;4.00;99.90;;;;;;5009462;28;20217;-76
2021/03/21 04:42:21;;;;;;;7.70;6.53;;;3.90;99.90;;;;;;5009289;28;20264;-76
2021/03/21 04:44:52;;;;;;;6.23;5.63;;;3.90;99.90;;;;;;5009341;28;20272;-76
2021/03/21 04:47:24;;;;;;;6.03;5.50;;;3.90;99.90;;;;;;5009527;28;20197;-76
2021/03/21 04:49:50;;;;;;;6.03;4.90;;;3.90;99.90;;;;;;5009283;28;20201;-76
2021/03/21 04:52:23;;;;;;;7.93;5.30;;;3.90;99.90;;;;;;5009112;28;20252;-78
2021/03/21 04:54:52;;;;;;;7.53;5.53;;;3.90;99.90;;;;;;5009027;28;20287;-77
2021/03/21 04:57:25;;;;;;;5.63;5.13;;;3.90;99.90;;;;;;5009120;28;20208;-77
2021/03/21 04:59:52;;;;;;;4.93;4.53;;;3.90;99.90;;;;;;5009249;28;20204;-77
2021/03/21 05:02:23;;;;;;;5.07;4.67;;;4.00;99.90;;;;;;5009114;28;20205;-77
2021/03/21 05:04:52;;;;;;;4.30;3.90;;;4.00;99.90;;;;;;5009025;28;20280;-77
2021/03/21 05:07:28;;;;;;;4.47;4.07;;;4.00;99.90;;;;;;5009105;28;20216;-77
2021/03/21 05:09:59;;;;;;;5.80;4.07;;;4.00;99.90;;;;;;5008884;28;20201;-75
2021/03/21 05:12:34;;;;;;;4.10;3.80;;;4.00;99.90;;;;;;5009040;28;20213;-76
2021/03/21 05:15:10;;;;;;;4.00;3.70;;;4.00;99.90;;;;;;5008326;28;20217;-76
2021/03/21 05:17:46;;;;;;;4.57;3.60;;;4.10;99.90;;;;;;5008810;28;20303;-77
2021/03/21 05:20:17;;;;;;;3.53;3.23;;;4.10;99.90;;;;;;5008196;28;20237;-76
2021/03/21 05:22:48;;;;;;;4.23;3.87;;;4.10;99.90;;;;;;5008946;28;20609;-78
2021/03/21 05:25:20;;;;;;;3.80;3.50;;;4.20;99.90;;;;;;5008879;28;20190;-76
2021/03/21 05:27:54;;;;;;;3.33;3.13;;;4.20;99.90;;;;;;5008999;28;20197;-77
2021/03/21 05:30:25;;;;;;;3.20;2.90;;;4.20;99.90;;;;;;5008842;28;20198;-76
2021/03/21 05:32:53;;;;;;;3.50;3.20;;;4.20;99.90;;;;;;5008741;28;20209;-77
2021/03/21 05:35:21;;;;;;;3.73;3.00;;;4.30;99.90;;;;;;5008566;28;20294;-76
2021/03/21 05:37:56;;;;;;;3.70;3.43;;;4.30;99.90;;;;;;5008825;28;20241;-77
2021/03/21 05:40:56;;;;;;;4.27;3.70;;;4.30;99.90;;;;;;5008659;28;20234;-77
2021/03/21 05:43:54;;;;;;;3.27;3.07;;;4.30;99.90;;;;;;5008393;28;20672;-78
2021/03/21 05:46:50;;;;;;;3.40;3.10;;;4.30;99.90;;;;;;5001102;28;20210;-78
2021/03/21 05:49:52;;;;;;;3.27;2.93;;;4.30;99.90;;;;;;5008313;28;20214;-78
2021/03/21 05:52:46;;;;;;;3.03;2.83;;;4.30;99.90;;;;;;5008289;28;20209;-75
2021/03/21 05:55:34;;;;;;;3.40;3.10;;;4.30;99.90;;;;;;5008397;28;20253;-75
2021/03/21 05:58:38;;;;;;;3.50;3.20;;;4.30;99.90;;;;;;5008449;28;20221;-75
2021/03/21 06:01:43;;;;;;;3.03;2.83;;;4.40;99.90;;;;;;5008156;28;20259;-77
2021/03/21 06:04:38;;;;;;;3.60;3.30;;;4.40;99.90;;;;;;5008185;28;20245;-76
2021/03/21 06:07:49;;;;;;;3.40;3.10;;;4.40;99.90;;;;;;5007844;28;20197;-77
2021/03/21 06:11:01;;;;;;;4.60;3.07;;;4.40;99.90;;;;;;5008331;28;20217;-76
2021/03/21 06:13:45;;;;;;;3.47;3.23;;;4.40;99.90;;;;;;5008377;28;20275;-76
2021/03/21 06:16:34;;;;;;;3.83;3.53;;;4.50;99.90;;;;;;5008330;28;20583;-78
2021/03/21 06:19:12;;;;;;;3.60;3.30;;;4.50;99.90;;;;;;5008417;28;20249;-77
2021/03/21 06:22:23;;;;;;;4.60;3.33;;;4.50;99.90;;;;;;5008220;28;20245;-79
2021/03/21 06:25:35;;;;;;;3.00;2.80;;;4.50;99.90;;;;;;4997539;28;20205;-78
2021/03/21 06:28:24;;;;;;;5.17;4.77;;;4.50;99.90;;;;;;5001277;28;20209;-77
2021/03/21 06:31:05;;;;;;;5.67;3.93;;;4.50;99.90;;;;;;5011774;28;20194;-78
2021/03/21 06:33:44;;;;;;;5.10;4.53;;;4.50;99.90;;;;;;5011828;28;20256;-79
2021/03/21 06:36:25;;;;;;;4.20;3.77;;;4.60;99.90;;;;;;5011366;28;20221;-78
2021/03/21 06:39:20;;;;;;;4.60;4.17;;;4.60;99.90;;;;;;5011643;28;20205;-78
2021/03/21 06:42:23;;;;;;;3.60;3.30;;;4.60;99.90;;;;;;5011697;28;20680;-78
2021/03/21 06:45:19;;;;;;;4.60;3.57;;;4.60;99.90;;;;;;5003301;28;20662;-78
2021/03/21 06:48:15;;;;;;;3.50;3.20;;;4.70;99.90;;;;;;5011352;28;20273;-77
2021/03/21 06:50:57;;;;;;;3.83;3.53;;;4.70;99.90;;;;;;5010134;28;20616;-78
2021/03/21 06:53:32;;;;;;;3.77;3.47;;;4.70;99.90;;;;;;5011456;28;20193;-77
2021/03/21 06:56:07;;;;;;;4.03;3.70;;;4.70;99.90;;;;;;5011356;28;20256;-77
2021/03/21 06:59:09;;;;;;;4.10;3.80;;;4.70;99.90;;;;;;5011217;28;20225;-77
2021/03/21 07:01:40;;;;;;;3.90;3.60;;;4.70;99.90;;;;;;5010885;28;20317;-75
2021/03/21 07:04:54;;;;;;;4.00;3.67;;;4.70;99.90;;;;;;5011041;28;20202;-75
2021/03/21 07:08:09;;;;;;;3.73;3.27;;;4.80;99.90;;;;;;5010849;28;20240;-77
2021/03/21 07:10:56;;;;;;;3.77;3.37;;;4.80;99.90;;;;;;5011059;28;20201;-76
2021/03/21 07:14:19;;;;;;;3.77;3.43;;;4.90;99.90;;;;;;5011902;28;20203;-78
2021/03/21 07:17:11;;;;;;;3.40;3.10;;;4.90;99.90;;;;;;5010980;28;20198;-77
2021/03/21 07:20:02;;;;;;;3.60;3.30;;;4.90;99.90;;;;;;5010651;28;20605;-77
2021/03/21 07:23:07;;;;;;;3.70;3.13;;;4.90;99.90;;;;;;5010451;28;20201;-77
2021/03/21 07:26:02;;;;;;;2.90;2.70;;;4.90;99.90;;;;;;5010818;28;20232;-76
2021/03/21 07:29:01;;;;;;;3.43;3.10;;;5.00;99.90;;;;;;5010714;28;20190;-77
2021/03/21 07:31:47;;;;;;;2.70;2.50;;;5.00;99.90;;;;;;5008451;28;20320;-77
2021/03/21 07:34:53;;;;;;;2.47;2.27;;;5.00;99.90;;;;;;5010598;28;20198;-77
2021/03/21 07:37:28;;;;;;;2.20;2.10;;;5.00;99.90;;;;;;5000523;28;20694;-77
2021/03/21 07:40:17;;;;;;;2.53;2.33;;;5.10;99.90;;;;;;5010491;28;20193;-78
2021/03/21 07:43:08;;;;;;;2.50;2.30;;;5.10;99.90;;;;;;5010474;28;20197;-77
2021/03/21 07:45:52;;;;;;;2.37;2.17;;;5.10;99.90;;;;;;5010465;28;20202;-78
2021/03/21 07:48:39;;;;;;;2.33;2.20;;;5.20;99.90;;;;;;5010107;28;20213;-77
2021/03/21 07:51:12;;;;;;;2.50;2.30;;;5.20;99.90;;;;;;5005074;28;20205;-77
2021/03/21 07:53:45;;;;;;;3.07;2.87;;;5.20;99.90;;;;;;5010175;28;20207;-78
2021/03/21 07:56:17;;;;;;;2.30;2.20;;;5.30;99.90;;;;;;5009942;28;20225;-77
2021/03/21 07:58:46;;;;;;;3.10;2.87;;;5.30;99.90;;;;;;5010216;28;20225;-77
2021/03/21 08:01:13;;;;;;;2.10;2.00;;;5.30;99.90;;;;;;5009836;28;20237;-78
2021/03/21 08:03:48;;;;;;;1.80;1.70;;;5.30;99.90;;;;;;5010225;28;20287;-78
2021/03/21 08:06:20;;;;;;;1.70;1.60;;;5.30;99.90;;;;;;5010034;28;20232;-77
2021/03/21 08:08:53;;;;;;;2.33;2.13;;;5.30;99.90;;;;;;5009815;28;20244;-77
2021/03/21 08:11:20;;;;;;;1.93;1.83;;;5.30;99.90;;;;;;5009928;28;20193;-77
2021/03/21 08:13:50;;;;;;;2.40;2.00;;;5.30;99.90;;;;;;5000391;28;20274;-76
2021/03/21 08:16:29;;;;;;;2.20;2.10;;;5.30;99.90;;;;;;4994749;28;20227;-75
2021/03/21 08:18:58;;;;;;;2.13;1.93;;;5.30;99.90;;;;;;5000572;28;20280;-76
2021/03/21 08:21:28;;;;;;;2.20;2.10;;;5.30;99.90;;;;;;4996862;28;20291;-77
2021/03/21 08:24:00;;;;;;;3.07;2.63;;;5.30;99.90;;;;;;5005507;28;20202;-77
2021/03/21 08:26:29;;;;;;;2.10;1.90;;;5.30;99.90;;;;;;5005255;28;20208;-76
2021/03/21 08:29:07;;;;;;;5.03;2.43;;;5.20;99.90;;;;;;5005394;28;20221;-77
2021/03/21 08:31:36;;;;;;;2.40;2.20;;;5.30;99.90;;;;;;5005441;28;20221;-77
2021/03/21 08:34:30;;;;;;;3.17;2.17;;;5.30;99.90;;;;;;5005477;28;20256;-77
2021/03/21 08:36:57;;;;;;;3.63;2.33;;;5.30;99.90;;;;;;5005505;28;20616;-76
2021/03/21 08:39:31;;;;;;;2.63;2.43;;;5.40;99.90;;;;;;5005064;28;20236;-77
2021/03/21 08:42:00;;;;;;;5.80;2.10;;;5.40;99.90;;;;;;4991552;28;20198;-77
2021/03/21 08:44:31;;;;;;;5.87;2.40;;;5.40;99.90;;;;;;4990583;28;20212;-76
2021/03/21 08:46:58;;;;;;;9.67;2.90;;;5.50;99.90;;;;;;4995934;28;21031;-76
2021/03/21 08:49:27;;;;;;;6.90;3.13;;;5.40;99.90;;;;;;4990164;28;20402;-76
2021/03/21 08:51:54;;;;;;;7.70;2.77;;;5.50;99.90;;;;;;4993905;28;20221;-76
2021/03/21 08:54:23;;;;;;;8.03;3.03;;;5.40;99.90;;;;;;5004896;28;20213;-76
2021/03/21 08:57:03;;;;;;;4.87;2.90;;;5.40;99.90;;;;;;5004893;28;20210;-71
2021/03/21 08:59:32;;;;;;;5.20;3.50;;;5.50;99.90;;;;;;5004906;28;20650;-71
2021/03/21 09:02:11;;;;;;;10.57;2.93;;;5.60;99.90;;;;;;5005040;28;20248;-76
2021/03/21 09:04:44;;;;;;;9.43;5.00;;;5.70;99.90;;;;;;5004705;28;20200;-77
2021/03/21 09:07:29;;;;;;;9.43;3.33;;;5.70;99.90;;;;;;5004866;28;20194;-77
2021/03/21 09:10:24;;;;;;;6.77;3.00;;;5.70;99.90;;;;;;5004412;28;20311;-77
2021/03/21 09:12:52;;;;;;;10.30;2.67;;;5.70;99.90;;;;;;4999003;28;20191;-77
2021/03/21 09:15:30;;;;;;;10.17;2.50;;;5.70;99.90;;;;;;4984959;28;20269;-77
2021/03/21 09:18:23;;;;;;;9.00;2.93;;;5.70;99.90;;;;;;4985255;28;20285;-77
2021/03/21 09:21:19;;;;;;;10.70;3.13;;;5.70;99.90;;;;;;4985134;28;20201;-77
2021/03/21 09:23:52;;;;;;;9.73;2.90;;;5.70;99.90;;;;;;4983396;28;20210;-76
2021/03/21 09:26:39;;;;;;;6.77;2.47;;;5.70;99.90;;;;;;4985155;28;20206;-77
2021/03/21 09:29:21;;;;;;;7.60;2.70;;;5.70;99.90;;;;;;4985341;28;20206;-76
2021/03/21 09:31:49;;;;;;;6.43;3.03;;;5.70;99.90;;;;;;4985446;28;20256;-76
2021/03/21 09:34:21;;;;;;;9.40;3.00;;;5.70;99.90;;;;;;5002509;28;20233;-77
2021/03/21 09:36:52;;;;;;;13.00;3.53;;;5.70;99.90;;;;;;5007681;28;20224;-77
2021/03/21 09:39:22;;;;;;;9.43;3.13;;;5.70;99.90;;;;;;4992088;28;20205;-77
2021/03/21 09:41:50;;;;;;;13.03;3.17;;;5.70;99.90;;;;;;5008313;28;20228;-77
2021/03/21 09:44:31;;;;;;;12.27;3.67;;;5.70;99.90;;;;;;5008176;28;20209;-77
2021/03/21 09:47:11;;;;;;;17.13;3.80;;;5.70;99.90;;;;;;5008166;28;20241;-77
2021/03/21 09:49:47;;;;;;;10.83;3.50;;;5.70;99.90;;;;;;5006784;28;20197;-77
2021/03/21 09:52:23;;;;;;;12.27;2.93;;;5.70;99.90;;;;;;5001910;28;20209;-76
2021/03/21 09:54:56;;;;;;;7.90;2.90;;;5.80;99.90;;;;;;5002103;28;20228;-76
2021/03/21 09:57:47;;;;;;;6.80;2.67;;;5.90;99.90;;;;;;5005717;28;20244;-78
2021/03/21 10:00:17;;;;;;;7.87;2.67;;;5.90;99.90;;;;;;4996234;28;20209;-78
2021/03/21 10:02:46;;;;;;;13.20;3.30;;;5.80;99.90;;;;;;5019964;28;20194;-78
2021/03/21 10:05:25;;;;;;;7.93;2.93;;;5.80;99.90;;;;;;5019782;28;20229;-78
2021/03/21 10:08:03;;;;;;;11.23;2.70;;;5.80;99.90;;;;;;5014293;28;20208;-77
2021/03/21 10:10:34;;;;;;;10.77;2.77;;;5.70;99.90;;;;;;4991607;28;20230;-78
2021/03/21 10:13:00;;;;;;;16.47;3.03;;;5.70;99.90;;;;;;5029118;28;20602;-78
2021/03/21 10:15:27;;;;;;;9.23;3.00;;;5.70;99.90;;;;;;5008152;28;20790;-78
2021/03/21 10:17:57;;;;;;;10.90;2.63;;;5.80;99.90;;;;;;5024101;28;20219;-78
2021/03/21 10:21:01;;;;;;;8.50;3.00;;;5.70;99.90;;;;;;5021496;28;20228;-78
2021/03/21 10:24:00;;;;;;;9.17;3.00;;;5.80;99.90;;;;;;5018675;28;20280;-79
2021/03/21 10:26:29;;;;;;;10.33;2.67;;;5.70;99.90;;;;;;5023186;28;20270;-77
2021/03/21 10:28:57;;;;;;;10.13;2.70;;;5.70;99.90;;;;;;5020024;28;20734;-78
2021/03/21 10:31:38;;;;;;;7.40;2.67;;;5.80;99.90;;;;;;5019468;28;20259;-78
2021/03/21 10:34:35;;;;;;;9.20;2.83;;;5.80;99.90;;;;;;5020304;28;20216;-78
2021/03/21 10:37:01;;;;;;;6.23;2.47;;;5.80;99.90;;;;;;5019465;28;20209;-78
2021/03/21 10:39:54;;;;;;;10.97;2.90;;;5.80;99.90;;;;;;5019302;28;20244;-78
2021/03/21 10:42:50;;;;;;;6.03;2.60;;;5.80;99.90;;;;;;5019505;28;20267;-78
2021/03/21 10:45:40;;;;;;;10.03;2.83;;;5.80;99.90;;;;;;5014628;28;20731;-78
2021/03/21 10:48:10;;;;;;;8.43;2.87;;;5.80;99.90;;;;;;5016214;28;20207;-78
2021/03/21 10:50:56;;;;;;;10.40;2.87;;;5.80;99.90;;;;;;5018498;28;20201;-76
2021/03/21 10:53:29;;;;;;;7.93;2.90;;;5.90;99.90;;;;;;5017049;28;20208;-83
2021/03/21 10:56:13;;;;;;;12.50;3.83;;;6.10;99.90;;;;;;5017681;28;20227;-78
2021/03/21 10:59:08;;;;;;;10.13;3.67;;;6.00;99.90;;;;;;5018531;28;20204;-78
2021/03/21 11:01:38;;;;;;;6.80;2.67;;;5.90;99.90;;;;;;5020603;28;20236;-78
2021/03/21 11:04:23;;;;;;;9.97;3.17;;;5.90;99.90;;;;;;5012659;28;20536;-84
2021/03/21 11:06:57;;;;;;;10.87;2.93;;;5.90;99.90;;;;;;5001979;28;20247;-78
2021/03/21 11:09:26;;;;;;;11.77;3.30;;;5.90;99.90;;;;;;5009783;28;20205;-78
2021/03/21 11:11:54;;;;;;;13.10;3.43;;;5.90;99.90;;;;;;5008516;28;20668;-78
2021/03/21 11:14:29;;;;;;;10.93;3.37;;;5.90;99.90;;;;;;5008744;28;20205;-78
2021/03/21 11:16:58;;;;;;;11.00;3.23;;;5.90;99.90;;;;;;5009584;28;20201;-78
2021/03/21 11:19:27;;;;;;;15.43;3.90;;;6.00;99.90;;;;;;5009312;28;20237;-78
2021/03/21 11:21:54;;;;;;;13.90;3.83;;;5.90;99.90;;;;;;5009248;28;20241;-78
2021/03/21 11:24:27;;;;;;;13.87;3.70;;;5.80;99.90;;;;;;5009968;28;20691;-78
2021/03/21 11:26:55;;;;;;;12.07;4.07;;;5.80;99.90;;;;;;5010892;28;20198;-77
2021/03/21 11:29:31;;;;;;;14.23;4.07;;;5.90;99.90;;;;;;5010501;28;20252;-78
2021/03/21 11:32:10;;;;;;;14.27;4.00;;;5.90;99.90;;;;;;5009965;28;20648;-78
2021/03/21 11:34:36;;;;;;;15.57;4.00;;;5.90;99.90;;;;;;5009940;28;20212;-78
2021/03/21 11:37:05;;;;;;;21.73;4.93;;;5.90;99.90;;;;;;5010343;28;20212;-78
2021/03/21 11:39:36;;;;;;;12.37;4.53;;;5.80;99.90;;;;;;5009856;28;20738;-78
2021/03/21 11:42:10;;;;;;;17.57;4.63;;;5.80;99.90;;;;;;5010203;28;20660;-78
2021/03/21 11:44:36;;;;;;;15.93;4.93;;;5.90;99.90;;;;;;5010354;28;20229;-78
2021/03/21 11:47:14;;;;;;;13.50;4.67;;;5.90;99.90;;;;;;5010328;28;20213;-78
2021/03/21 11:49:41;;;;;;;12.67;4.10;;;5.90;99.90;;;;;;5010567;28;20197;-78
2021/03/21 11:52:07;;;;;;;20.43;4.47;;;6.00;99.90;;;;;;5009879;28;20703;-78
2021/03/21 11:54:36;;;;;;;13.33;4.23;;;6.00;99.90;;;;;;5009920;28;20220;-77
2021/03/21 11:57:14;;;;;;;17.97;4.43;;;6.00;99.90;;;;;;5010191;28;20214;-78
2021/03/21 11:59:45;;;;;;;15.47;4.07;;;6.10;99.90;;;;;;5009886;28;20229;-80
2021/03/21 12:02:28;;;;;;;13.17;3.53;;;6.20;99.90;;;;;;5009784;28;20197;-78
2021/03/21 12:04:56;;;;;;;11.50;4.37;;;6.30;99.90;;;;;;5009744;28;20229;-79
2021/03/21 12:07:25;;;;;;;16.57;4.10;;;6.40;99.90;;;;;;5009860;28;20210;-78
2021/03/21 12:09:52;;;;;;;17.83;3.80;;;6.40;99.90;;;;;;5009783;28;20668;-77
2021/03/21 12:12:45;;;;;;;15.97;4.40;;;6.50;99.90;;;;;;5009871;28;20206;-78
2021/03/21 12:15:15;;;;;;;14.20;4.07;;;6.60;99.90;;;;;;4996544;28;20703;-78
2021/03/21 12:17:43;;;;;;;16.23;4.77;;;6.70;99.90;;;;;;5009665;28;20237;-78
2021/03/21 12:20:32;;;;;;;17.73;4.53;;;6.80;99.90;;;;;;5009354;28;20244;-78
2021/03/21 12:22:58;;;;;;;16.73;4.13;;;7.00;99.90;;;;;;5009489;28;20235;-77
2021/03/21 12:25:30;;;;;;;15.37;3.60;;;7.30;99.90;;;;;;5009087;28;20629;-77
2021/03/21 12:28:06;;;;;;;12.30;4.03;;;7.60;99.90;;;;;;5009569;28;20332;-78
2021/03/21 12:30:37;;;;;;;10.57;3.67;;;7.90;99.90;;;;;;5009699;28;20193;-75
2021/03/21 12:33:29;;;;;;;13.03;3.83;;;8.20;99.90;;;;;;5009500;28;20202;-75
2021/03/21 12:36:10;;;;;;;13.20;4.00;;;8.40;99.90;;;;;;5009344;28;20221;-77
2021/03/21 12:38:39;;;;;;;14.77;3.70;;;8.60;99.90;;;;;;5009172;28;20233;-76
2021/03/21 12:41:39;;;;;;;7.73;3.20;;;8.80;99.90;;;;;;5009310;28;20289;-77
2021/03/21 12:44:10;;;;;;;10.30;3.30;;;8.70;99.90;;;;;;5009407;28;20198;-76
2021/03/21 12:46:42;;;;;;;10.30;3.57;;;8.70;99.90;;;;;;5009207;28;20295;-76
2021/03/21 12:49:27;;;;;;;8.03;3.70;;;8.50;99.90;;;;;;5009136;28;20204;-76
2021/03/21 12:51:58;;;;;;;10.40;3.20;;;8.40;99.90;;;;;;5009086;28;20194;-77
2021/03/21 12:54:24;;;;;;;11.53;3.70;;;8.40;99.90;;;;;;5009182;28;20225;-77
2021/03/21 12:56:50;;;;;;;11.80;3.27;;;8.40;99.90;;;;;;5009000;28;20237;-77
2021/03/21 12:59:16;;;;;;;10.37;3.40;;;8.30;99.90;;;;;;5008898;28;20210;-77
2021/03/21 13:01:44;;;;;;;11.73;3.43;;;8.20;99.90;;;;;;5009236;28;20217;-76
2021/03/21 13:04:11;;;;;;;10.50;3.03;;;8.30;99.90;;;;;;5008853;28;20212;-76
2021/03/21 13:06:38;;;;;;;12.63;3.07;;;8.50;99.90;;;;;;5008966;28;20726;-78
2021/03/21 13:09:04;;;;;;;14.03;3.63;;;8.70;99.90;;;;;;5008705;28;20201;-77
2021/03/21 13:11:31;;;;;;;10.93;3.60;;;9.10;99.90;;;;;;5008452;28;20664;-76
2021/03/21 13:13:57;;;;;;;11.37;2.80;;;9.30;99.90;;;;;;5008135;28;20874;-77
2021/03/21 13:16:23;;;;;;;8.40;2.60;;;9.50;99.90;;;;;;5008601;28;20287;-77
2021/03/21 13:18:49;;;;;;;9.23;3.60;;;9.50;99.90;;;;;;5008501;28;20245;-77
2021/03/21 13:21:17;;;;;;;6.47;2.70;;;9.50;99.90;;;;;;5008783;28;20209;-77
2021/03/21 13:23:43;;;;;;;7.30;2.90;;;9.70;99.90;;;;;;5008615;28;20216;-75
2021/03/21 13:26:09;;;;;;;11.20;3.20;;;9.80;99.90;;;;;;5008670;28;20252;-77
2021/03/21 13:28:35;;;;;;;7.27;2.30;;;9.80;99.90;;;;;;5008869;28;20244;-77
2021/03/21 13:31:01;;;;;;;6.43;2.87;;;9.70;99.90;;;;;;5008617;28;20237;-76
2021/03/21 13:33:29;;;;;;;7.23;2.50;;;9.70;99.90;;;;;;5008305;28;20202;-76
2021/03/21 13:35:58;;;;;;;8.97;2.40;;;9.70;99.90;;;;;;5010820;28;20260;-76